This is the latest recevied weather packets stored in our database for station/object JE3XST-13. If no packets are shown the sender has not sent any weather packets the latest 10 day(s).
| Time | Temp. | Humidity | Pressure | Rain* | Wind** | Luminosity | Snow |
|---|---|---|---|---|---|---|---|
| 1787454846 | 35.56° C | 53% | 1013 hPa | 0 mm | - | - | - |
| 1787453046 | 34.44° C | 56% | 1013.3 hPa | 0 mm | - | - | - |
| 1787451245 | 33.89° C | 58% | 1013.5 hPa | 0 mm | - | - | - |
| 1787449442 | 33.89° C | 57% | 1014 hPa | 0 mm | - | - | - |
| 1787447642 | 32.78° C | 63% | 1014.4 hPa | 0 mm | - | - | - |
| 1787445843 | 31.11° C | 68% | 1014.6 hPa | 0 mm | - | - | - |
| 1787444041 | 31.11° C | 69% | 1014.6 hPa | 0 mm | - | - | - |
| 1787442241 | 30.56° C | 71% | 1014.6 hPa | 0 mm | - | - | - |
| 1787440440 | 30° C | 72% | 1014.6 hPa | 0 mm | - | - | - |
| 1787438640 | 29.44° C | 75% | 1014.8 hPa | 0 mm | - | - | - |
| 1787436839 | 27.78° C | 76% | 1014.9 hPa | 0 mm | - | - | - |
| 1787435039 | 27.22° C | 81% | 1014.8 hPa | 0 mm | - | - | - |
| 1787433238 | 26.67° C | 84% | 1014.7 hPa | 0 mm | - | - | - |
| 1787431438 | 26.11° C | 83% | 1014.4 hPa | 0 mm | - | - | - |
| 1787429637 | 26.11° C | 82% | 1014.2 hPa | 0 mm | - | - | - |
| 1787427835 | 26.67° C | 81% | 1014.2 hPa | 0 mm | - | - | - |
| 1787426035 | 27.22° C | 82% | 1014.2 hPa | 0 mm | - | - | - |
| 1787424233 | 27.22° C | 82% | 1013.9 hPa | 0 mm | - | - | - |
| 1787422434 | 27.22° C | 83% | 1013.8 hPa | 0 mm | - | - | - |
| 1787420633 | 27.22° C | 83% | 1013.7 hPa | 0 mm | - | - | - |
| 1787418833 | 27.78° C | 82% | 1013.7 hPa | 0 mm | - | - | - |
| 1787417032 | 27.78° C | 80% | 1013.8 hPa | 0 mm | - | - | - |
| 1787415231 | 28.33° C | 79% | 1013.8 hPa | 0 mm | - | - | - |
| 1787413485 | 28.33° C | 78% | 1014 hPa | 0 mm | - | - | - |
| 1787411685 | 28.33° C | 78% | 1014 hPa | 0 mm | - | - | - |
* Rain latest hour (hover to see other rain measurements)
** Current wind speed in m/s (hover to see current wind gust speed)